sensor_id;sensor_type;location;lat;lon;timestamp;pressure;altitude;pressure_sealevel;temperature;humidity
76337;BME280;65157;50.082;18.178;2023-02-28T00:00:48;100535.66;;;-0.35;69.35
76337;BME280;65157;50.082;18.178;2023-02-28T00:03:21;100536.21;;;-0.34;69.24
76337;BME280;65157;50.082;18.178;2023-02-28T00:05:47;100535.22;;;-0.31;69.40
76337;BME280;65157;50.082;18.178;2023-02-28T00:08:13;100502.98;;;-0.47;69.43
76337;BME280;65157;50.082;18.178;2023-02-28T00:10:39;100533.98;;;-0.25;69.39
76337;BME280;65157;50.082;18.178;2023-02-28T00:13:06;100536.80;;;-0.24;69.35
76337;BME280;65157;50.082;18.178;2023-02-28T00:15:33;100528.06;;;-0.26;69.22
76337;BME280;65157;50.082;18.178;2023-02-28T00:17:59;100537.84;;;-0.23;69.00
76337;BME280;65157;50.082;18.178;2023-02-28T00:20:25;100534.36;;;-0.24;69.20
76337;BME280;65157;50.082;18.178;2023-02-28T00:22:53;100539.52;;;-0.26;69.18
76337;BME280;65157;50.082;18.178;2023-02-28T00:25:23;100539.26;;;-0.29;69.24
76337;BME280;65157;50.082;18.178;2023-02-28T00:27:49;100537.27;;;-0.33;69.52
76337;BME280;65157;50.082;18.178;2023-02-28T00:30:20;100540.86;;;-0.35;69.35
76337;BME280;65157;50.082;18.178;2023-02-28T00:32:47;100541.67;;;-0.39;69.30
76337;BME280;65157;50.082;18.178;2023-02-28T00:35:13;100541.27;;;-0.41;69.25
76337;BME280;65157;50.082;18.178;2023-02-28T00:37:39;100541.88;;;-0.44;69.29
76337;BME280;65157;50.082;18.178;2023-02-28T00:40:06;100543.72;;;-0.47;69.25
76337;BME280;65157;50.082;18.178;2023-02-28T00:42:33;100541.55;;;-0.51;69.48
76337;BME280;65157;50.082;18.178;2023-02-28T00:45:00;100540.77;;;-0.54;69.47
76337;BME280;65157;50.082;18.178;2023-02-28T00:47:26;100542.09;;;-0.58;69.23
76337;BME280;65157;50.082;18.178;2023-02-28T00:49:52;100542.72;;;-0.60;69.45
76337;BME280;65157;50.082;18.178;2023-02-28T00:52:18;100546.69;;;-0.61;69.20
76337;BME280;65157;50.082;18.178;2023-02-28T00:54:44;100547.59;;;-0.60;69.45
76337;BME280;65157;50.082;18.178;2023-02-28T00:57:09;100549.91;;;-0.57;69.19
76337;BME280;65157;50.082;18.178;2023-02-28T00:59:35;100542.86;;;-0.54;69.30
76337;BME280;65157;50.082;18.178;2023-02-28T01:02:02;100543.43;;;-0.52;69.22
76337;BME280;65157;50.082;18.178;2023-02-28T01:04:28;100542.21;;;-0.52;69.77
76337;BME280;65157;50.082;18.178;2023-02-28T01:06:54;100538.96;;;-0.50;69.75
76337;BME280;65157;50.082;18.178;2023-02-28T01:09:20;100539.46;;;-0.51;69.25
76337;BME280;65157;50.082;18.178;2023-02-28T01:11:45;100540.13;;;-0.53;69.68
76337;BME280;65157;50.082;18.178;2023-02-28T01:14:17;100538.87;;;-0.54;69.66
76337;BME280;65157;50.082;18.178;2023-02-28T01:16:44;100534.14;;;-0.56;69.45
76337;BME280;65157;50.082;18.178;2023-02-28T01:19:10;100532.34;;;-0.60;69.69
76337;BME280;65157;50.082;18.178;2023-02-28T01:21:36;100529.14;;;-0.63;69.65
76337;BME280;65157;50.082;18.178;2023-02-28T01:24:04;100532.52;;;-0.66;69.69
76337;BME280;65157;50.082;18.178;2023-02-28T01:26:30;100534.00;;;-0.70;69.80
76337;BME280;65157;50.082;18.178;2023-02-28T01:28:57;100535.80;;;-0.74;70.16
76337;BME280;65157;50.082;18.178;2023-02-28T01:31:24;100536.39;;;-0.79;70.21
76337;BME280;65157;50.082;18.178;2023-02-28T01:33:50;100535.10;;;-0.82;70.14
76337;BME280;65157;50.082;18.178;2023-02-28T01:36:19;100531.95;;;-0.83;70.50
76337;BME280;65157;50.082;18.178;2023-02-28T01:38:46;100530.96;;;-0.82;70.74
76337;BME280;65157;50.082;18.178;2023-02-28T01:41:21;100526.13;;;-0.80;70.47
76337;BME280;65157;50.082;18.178;2023-02-28T01:46:13;100522.27;;;-0.75;70.64
76337;BME280;65157;50.082;18.178;2023-02-28T01:48:44;100521.59;;;-0.74;70.40
76337;BME280;65157;50.082;18.178;2023-02-28T01:51:22;100520.69;;;-0.76;70.01
76337;BME280;65157;50.082;18.178;2023-02-28T01:53:58;100518.23;;;-0.77;70.08
76337;BME280;65157;50.082;18.178;2023-02-28T01:56:29;100520.06;;;-0.80;70.22
76337;BME280;65157;50.082;18.178;2023-02-28T01:58:56;100523.65;;;-0.83;70.18
76337;BME280;65157;50.082;18.178;2023-02-28T02:01:27;100522.14;;;-0.87;69.97
76337;BME280;65157;50.082;18.178;2023-02-28T02:03:56;100524.27;;;-0.92;70.14
76337;BME280;65157;50.082;18.178;2023-02-28T02:06:29;100525.05;;;-0.96;70.18
76337;BME280;65157;50.082;18.178;2023-02-28T02:08:56;100520.92;;;-1.01;70.08
76337;BME280;65157;50.082;18.178;2023-02-28T02:11:23;100518.20;;;-1.07;70.10
76337;BME280;65157;50.082;18.178;2023-02-28T02:24:59;100516.36;;;-1.25;70.77
76337;BME280;65157;50.082;18.178;2023-02-28T02:27:45;100510.95;;;-1.27;70.70
76337;BME280;65157;50.082;18.178;2023-02-28T02:33:02;100518.36;;;-1.22;70.73
76337;BME280;65157;50.082;18.178;2023-02-28T02:38:50;100517.81;;;-1.23;70.77
76337;BME280;65157;50.082;18.178;2023-02-28T02:41:29;100522.63;;;-1.24;70.78
76337;BME280;65157;50.082;18.178;2023-02-28T02:44:07;100524.97;;;-1.27;70.80
76337;BME280;65157;50.082;18.178;2023-02-28T02:46:41;100524.15;;;-1.32;70.65
76337;BME280;65157;50.082;18.178;2023-02-28T02:49:12;100524.42;;;-1.35;70.68
76337;BME280;65157;50.082;18.178;2023-02-28T02:51:42;100523.42;;;-1.40;70.88
76337;BME280;65157;50.082;18.178;2023-02-28T02:54:11;100530.40;;;-1.44;70.98
76337;BME280;65157;50.082;18.178;2023-02-28T02:56:39;100532.16;;;-1.49;71.07
76337;BME280;65157;50.082;18.178;2023-02-28T02:59:09;100533.78;;;-1.54;71.17
76337;BME280;65157;50.082;18.178;2023-02-28T03:01:37;100533.14;;;-1.58;71.06
76337;BME280;65157;50.082;18.178;2023-02-28T03:04:16;100536.66;;;-1.62;71.11
76337;BME280;65157;50.082;18.178;2023-02-28T03:06:44;100536.43;;;-1.64;71.18
76337;BME280;65157;50.082;18.178;2023-02-28T03:09:10;100537.45;;;-1.66;71.27
76337;BME280;65157;50.082;18.178;2023-02-28T03:11:37;100533.52;;;-1.64;71.26
76337;BME280;65157;50.082;18.178;2023-02-28T03:16:49;100534.02;;;-1.58;71.37
76337;BME280;65157;50.082;18.178;2023-02-28T03:19:34;100532.33;;;-1.56;71.31
76337;BME280;65157;50.082;18.178;2023-02-28T03:22:19;100535.09;;;-1.56;71.19
76337;BME280;65157;50.082;18.178;2023-02-28T03:25:02;100535.23;;;-1.58;71.27
76337;BME280;65157;50.082;18.178;2023-02-28T03:27:44;100532.92;;;-1.60;71.34
76337;BME280;65157;50.082;18.178;2023-02-28T03:30:25;100535.09;;;-1.63;71.34
76337;BME280;65157;50.082;18.178;2023-02-28T03:35:34;100533.32;;;-1.71;71.18
76337;BME280;65157;50.082;18.178;2023-02-28T03:38:31;100522.77;;;-1.83;71.34
76337;BME280;65157;50.082;18.178;2023-02-28T03:41:06;100532.70;;;-1.81;71.56
76337;BME280;65157;50.082;18.178;2023-02-28T03:43:36;100538.83;;;-1.85;71.22
76337;BME280;65157;50.082;18.178;2023-02-28T03:46:07;100537.99;;;-1.90;71.32
76337;BME280;65157;50.082;18.178;2023-02-28T03:48:43;100540.28;;;-1.94;71.57
76337;BME280;65157;50.082;18.178;2023-02-28T03:51:16;100542.94;;;-1.98;71.70
76337;BME280;65157;50.082;18.178;2023-02-28T03:53:49;100556.36;;;-2.01;71.60
76337;BME280;65157;50.082;18.178;2023-02-28T03:56:19;100555.66;;;-2.01;71.64
76337;BME280;65157;50.082;18.178;2023-02-28T03:59:27;100557.08;;;-2.00;71.35
76337;BME280;65157;50.082;18.178;2023-02-28T04:01:54;100561.29;;;-1.97;71.49
76337;BME280;65157;50.082;18.178;2023-02-28T04:04:21;100559.25;;;-1.96;71.64
76337;BME280;65157;50.082;18.178;2023-02-28T04:06:52;100560.68;;;-1.95;71.55
76337;BME280;65157;50.082;18.178;2023-02-28T04:09:18;100557.89;;;-1.96;71.70
76337;BME280;65157;50.082;18.178;2023-02-28T04:11:51;100560.13;;;-1.96;71.92
76337;BME280;65157;50.082;18.178;2023-02-28T04:14:17;100563.00;;;-1.98;71.84
76337;BME280;65157;50.082;18.178;2023-02-28T04:16:43;100561.20;;;-2.01;71.86
76337;BME280;65157;50.082;18.178;2023-02-28T04:19:11;100559.70;;;-2.05;71.61
76337;BME280;65157;50.082;18.178;2023-02-28T04:21:46;100559.77;;;-2.08;71.82
76337;BME280;65157;50.082;18.178;2023-02-28T04:24:14;100560.72;;;-2.11;72.13
76337;BME280;65157;50.082;18.178;2023-02-28T04:26:45;100559.56;;;-2.15;72.52
76337;BME280;65157;50.082;18.178;2023-02-28T04:29:14;100563.09;;;-2.18;72.51
76337;BME280;65157;50.082;18.178;2023-02-28T04:31:43;100565.27;;;-2.21;72.34
76337;BME280;65157;50.082;18.178;2023-02-28T04:34:10;100566.29;;;-2.21;72.45
76337;BME280;65157;50.082;18.178;2023-02-28T04:36:36;100569.09;;;-2.20;72.61
76337;BME280;65157;50.082;18.178;2023-02-28T04:39:02;100570.90;;;-2.18;72.62
76337;BME280;65157;50.082;18.178;2023-02-28T04:41:28;100551.03;;;-2.29;72.19
76337;BME280;65157;50.082;18.178;2023-02-28T04:43:54;100567.44;;;-2.18;72.33
76337;BME280;65157;50.082;18.178;2023-02-28T04:46:20;100577.81;;;-2.12;72.39
76337;BME280;65157;50.082;18.178;2023-02-28T04:48:46;100576.59;;;-2.13;72.22
76337;BME280;65157;50.082;18.178;2023-02-28T04:51:17;100576.18;;;-2.14;72.26
76337;BME280;65157;50.082;18.178;2023-02-28T04:53:43;100574.36;;;-2.17;72.51
76337;BME280;65157;50.082;18.178;2023-02-28T04:56:12;100575.00;;;-2.19;72.54
76337;BME280;65157;50.082;18.178;2023-02-28T04:58:39;100578.02;;;-2.22;72.74
76337;BME280;65157;50.082;18.178;2023-02-28T05:01:14;100566.14;;;-2.32;72.80
76337;BME280;65157;50.082;18.178;2023-02-28T05:03:44;100579.02;;;-2.30;72.66
76337;BME280;65157;50.082;18.178;2023-02-28T05:06:11;100581.83;;;-2.33;72.54
76337;BME280;65157;50.082;18.178;2023-02-28T05:08:38;100583.83;;;-2.36;72.49
76337;BME280;65157;50.082;18.178;2023-02-28T05:13:41;100580.56;;;-2.41;72.73
76337;BME280;65157;50.082;18.178;2023-02-28T05:16:08;100584.27;;;-2.39;72.75
76337;BME280;65157;50.082;18.178;2023-02-28T05:18:34;100588.48;;;-2.37;72.88
76337;BME280;65157;50.082;18.178;2023-02-28T05:21:00;100584.73;;;-2.35;72.94
76337;BME280;65157;50.082;18.178;2023-02-28T05:23:26;100581.31;;;-2.34;72.86
76337;BME280;65157;50.082;18.178;2023-02-28T05:25:52;100588.23;;;-2.33;72.81
76337;BME280;65157;50.082;18.178;2023-02-28T05:28:18;100587.68;;;-2.35;72.88
76337;BME280;65157;50.082;18.178;2023-02-28T05:30:46;100582.17;;;-2.40;73.15
76337;BME280;65157;50.082;18.178;2023-02-28T05:33:13;100594.72;;;-2.36;73.22
76337;BME280;65157;50.082;18.178;2023-02-28T05:35:40;100595.68;;;-2.39;73.34
76337;BME280;65157;50.082;18.178;2023-02-28T05:38:07;100600.29;;;-2.40;73.46
76337;BME280;65157;50.082;18.178;2023-02-28T05:40:34;100603.89;;;-2.41;73.52
76337;BME280;65157;50.082;18.178;2023-02-28T05:43:13;100604.63;;;-2.40;73.59
76337;BME280;65157;50.082;18.178;2023-02-28T05:45:39;100609.23;;;-2.36;73.67
76337;BME280;65157;50.082;18.178;2023-02-28T05:48:12;100594.76;;;-2.41;73.63
76337;BME280;65157;50.082;18.178;2023-02-28T05:50:38;100614.09;;;-2.24;73.53
76337;BME280;65157;50.082;18.178;2023-02-28T05:53:04;100615.30;;;-2.19;73.71
76337;BME280;65157;50.082;18.178;2023-02-28T05:55:30;100615.43;;;-2.15;73.43
76337;BME280;65157;50.082;18.178;2023-02-28T05:57:56;100622.05;;;-2.13;73.41
76337;BME280;65157;50.082;18.178;2023-02-28T06:00:22;100622.91;;;-2.13;73.59
76337;BME280;65157;50.082;18.178;2023-02-28T06:02:48;100625.69;;;-2.13;73.41
76337;BME280;65157;50.082;18.178;2023-02-28T06:05:16;100618.58;;;-2.20;73.59
76337;BME280;65157;50.082;18.178;2023-02-28T06:07:43;100618.55;;;-2.21;73.58
76337;BME280;65157;50.082;18.178;2023-02-28T06:10:10;100630.55;;;-2.18;73.59
76337;BME280;65157;50.082;18.178;2023-02-28T06:12:37;100626.02;;;-2.25;73.65
76337;BME280;65157;50.082;18.178;2023-02-28T06:15:07;100634.20;;;-2.23;73.86
76337;BME280;65157;50.082;18.178;2023-02-28T06:17:33;100637.83;;;-2.23;73.73
76337;BME280;65157;50.082;18.178;2023-02-28T06:19:59;100638.99;;;-2.19;73.78
76337;BME280;65157;50.082;18.178;2023-02-28T06:22:25;100639.59;;;-2.11;73.96
76337;BME280;65157;50.082;18.178;2023-02-28T06:24:51;100636.86;;;-2.05;74.06
76337;BME280;65157;50.082;18.178;2023-02-28T06:27:17;100642.15;;;-1.90;73.99
76337;BME280;65157;50.082;18.178;2023-02-28T06:29:44;100643.02;;;-1.78;74.01
76337;BME280;65157;50.082;18.178;2023-02-28T06:32:10;100648.88;;;-1.67;73.64
76337;BME280;65157;50.082;18.178;2023-02-28T06:34:36;100653.80;;;-1.59;73.96
76337;BME280;65157;50.082;18.178;2023-02-28T06:37:02;100655.10;;;-1.49;73.62
76337;BME280;65157;50.082;18.178;2023-02-28T06:39:29;100656.23;;;-1.40;73.36
76337;BME280;65157;50.082;18.178;2023-02-28T06:41:56;100652.70;;;-1.31;73.40
76337;BME280;65157;50.082;18.178;2023-02-28T06:44:22;100649.45;;;-1.23;73.44
76337;BME280;65157;50.082;18.178;2023-02-28T06:46:50;100652.80;;;-1.14;73.17
76337;BME280;65157;50.082;18.178;2023-02-28T06:49:16;100653.20;;;-1.05;73.09
76337;BME280;65157;50.082;18.178;2023-02-28T06:51:44;100651.34;;;-0.97;72.95
76337;BME280;65157;50.082;18.178;2023-02-28T06:54:10;100653.34;;;-0.88;72.63
76337;BME280;65157;50.082;18.178;2023-02-28T06:56:46;100650.46;;;-0.78;72.56
76337;BME280;65157;50.082;18.178;2023-02-28T06:59:15;100648.36;;;-0.72;72.37
76337;BME280;65157;50.082;18.178;2023-02-28T07:01:41;100654.59;;;-0.59;72.03
76337;BME280;65157;50.082;18.178;2023-02-28T07:04:07;100653.61;;;-0.49;71.86
76337;BME280;65157;50.082;18.178;2023-02-28T07:06:33;100654.23;;;-0.38;71.92
76337;BME280;65157;50.082;18.178;2023-02-28T07:09:00;100651.64;;;-0.31;71.69
76337;BME280;65157;50.082;18.178;2023-02-28T07:11:27;100655.20;;;-0.20;71.60
76337;BME280;65157;50.082;18.178;2023-02-28T07:13:54;100659.55;;;-0.12;71.44
76337;BME280;65157;50.082;18.178;2023-02-28T07:16:21;100660.73;;;-0.05;70.95
76337;BME280;65157;50.082;18.178;2023-02-28T07:18:48;100648.98;;;-0.04;71.04
76337;BME280;65157;50.082;18.178;2023-02-28T07:21:14;100655.83;;;0.08;70.91
76337;BME280;65157;50.082;18.178;2023-02-28T07:23:42;100648.50;;;0.06;70.82
76337;BME280;65157;50.082;18.178;2023-02-28T07:26:14;100661.61;;;0.18;70.65
76337;BME280;65157;50.082;18.178;2023-02-28T07:28:41;100660.63;;;0.20;70.42
76337;BME280;65157;50.082;18.178;2023-02-28T07:31:09;100661.67;;;0.21;70.46
76337;BME280;65157;50.082;18.178;2023-02-28T07:33:35;100661.83;;;0.20;70.45
76337;BME280;65157;50.082;18.178;2023-02-28T07:36:07;100669.40;;;0.24;70.50
76337;BME280;65157;50.082;18.178;2023-02-28T07:38:47;100672.23;;;0.27;70.21
76337;BME280;65157;50.082;18.178;2023-02-28T07:41:17;100673.42;;;0.26;70.09
76337;BME280;65157;50.082;18.178;2023-02-28T07:43:45;100675.29;;;0.24;70.03
76337;BME280;65157;50.082;18.178;2023-02-28T07:46:14;100662.42;;;0.15;69.78
76337;BME280;65157;50.082;18.178;2023-02-28T07:48:43;100673.75;;;0.25;69.80
76337;BME280;65157;50.082;18.178;2023-02-28T07:51:09;100680.77;;;0.28;69.75
76337;BME280;65157;50.082;18.178;2023-02-28T07:53:35;100677.84;;;0.30;69.74
76337;BME280;65157;50.082;18.178;2023-02-28T07:56:02;100661.86;;;0.21;69.52
76337;BME280;65157;50.082;18.178;2023-02-28T07:58:30;100672.09;;;0.28;69.62
76337;BME280;65157;50.082;18.178;2023-02-28T08:00:56;100683.80;;;0.32;69.31
76337;BME280;65157;50.082;18.178;2023-02-28T08:03:24;100685.35;;;0.31;69.41
76337;BME280;65157;50.082;18.178;2023-02-28T08:05:50;100683.92;;;0.30;69.48
76337;BME280;65157;50.082;18.178;2023-02-28T08:08:16;100682.49;;;0.28;69.24
76337;BME280;65157;50.082;18.178;2023-02-28T08:10:42;100665.54;;;0.15;69.48
76337;BME280;65157;50.082;18.178;2023-02-28T08:13:08;100682.04;;;0.22;69.34
76337;BME280;65157;50.082;18.178;2023-02-28T08:15:35;100684.36;;;0.19;69.53
76337;BME280;65157;50.082;18.178;2023-02-28T08:18:01;100684.48;;;0.15;69.47
76337;BME280;65157;50.082;18.178;2023-02-28T08:20:43;100681.84;;;0.14;69.82
76337;BME280;65157;50.082;18.178;2023-02-28T08:23:09;100680.11;;;0.15;69.79
76337;BME280;65157;50.082;18.178;2023-02-28T08:25:35;100661.13;;;0.03;69.77
76337;BME280;65157;50.082;18.178;2023-02-28T08:28:04;100678.23;;;0.16;69.92
76337;BME280;65157;50.082;18.178;2023-02-28T08:30:37;100681.41;;;0.19;70.10
76337;BME280;65157;50.082;18.178;2023-02-28T08:33:03;100685.14;;;0.22;69.69
76337;BME280;65157;50.082;18.178;2023-02-28T08:35:29;100685.04;;;0.25;69.85
76337;BME280;65157;50.082;18.178;2023-02-28T08:37:55;100684.14;;;0.31;69.97
76337;BME280;65157;50.082;18.178;2023-02-28T08:40:21;100681.85;;;0.38;69.90
76337;BME280;65157;50.082;18.178;2023-02-28T08:42:48;100680.62;;;0.45;69.63
76337;BME280;65157;50.082;18.178;2023-02-28T08:45:14;100680.84;;;0.48;69.48
76337;BME280;65157;50.082;18.178;2023-02-28T08:47:40;100681.44;;;0.51;68.94
76337;BME280;65157;50.082;18.178;2023-02-28T08:50:07;100680.40;;;0.51;68.96
76337;BME280;65157;50.082;18.178;2023-02-28T08:52:33;100682.73;;;0.54;69.17
76337;BME280;65157;50.082;18.178;2023-02-28T08:54:59;100686.46;;;0.59;69.33
76337;BME280;65157;50.082;18.178;2023-02-28T08:57:28;100687.79;;;0.64;69.32
76337;BME280;65157;50.082;18.178;2023-02-28T08:59:54;100687.52;;;0.68;68.45
76337;BME280;65157;50.082;18.178;2023-02-28T09:02:20;100685.83;;;0.70;68.29
76337;BME280;65157;50.082;18.178;2023-02-28T09:04:48;100690.04;;;0.72;68.23
76337;BME280;65157;50.082;18.178;2023-02-28T09:07:14;100691.42;;;0.72;67.01
76337;BME280;65157;50.082;18.178;2023-02-28T09:09:44;100690.02;;;0.72;67.45
76337;BME280;65157;50.082;18.178;2023-02-28T09:12:12;100687.14;;;0.75;67.70
76337;BME280;65157;50.082;18.178;2023-02-28T09:14:42;100687.82;;;0.83;67.65
76337;BME280;65157;50.082;18.178;2023-02-28T09:17:07;100689.02;;;0.91;67.69
76337;BME280;65157;50.082;18.178;2023-02-28T09:19:33;100687.12;;;1.00;67.78
76337;BME280;65157;50.082;18.178;2023-02-28T09:21:59;100684.67;;;1.08;66.37
76337;BME280;65157;50.082;18.178;2023-02-28T09:24:25;100689.11;;;1.13;65.36
76337;BME280;65157;50.082;18.178;2023-02-28T09:26:52;100683.55;;;1.13;64.70
76337;BME280;65157;50.082;18.178;2023-02-28T09:29:18;100685.77;;;1.21;65.19
76337;BME280;65157;50.082;18.178;2023-02-28T09:31:44;100684.23;;;1.32;64.93
76337;BME280;65157;50.082;18.178;2023-02-28T09:34:10;100682.30;;;1.41;64.40
76337;BME280;65157;50.082;18.178;2023-02-28T09:36:39;100680.98;;;1.54;64.99
76337;BME280;65157;50.082;18.178;2023-02-28T09:39:05;100682.12;;;1.70;64.60
76337;BME280;65157;50.082;18.178;2023-02-28T09:41:38;100679.55;;;1.84;63.40
76337;BME280;65157;50.082;18.178;2023-02-28T09:44:14;100665.30;;;1.96;64.20
76337;BME280;65157;50.082;18.178;2023-02-28T09:46:47;100676.92;;;2.29;64.45
76337;BME280;65157;50.082;18.178;2023-02-28T09:49:17;100681.09;;;2.54;62.23
76337;BME280;65157;50.082;18.178;2023-02-28T09:51:59;100672.42;;;2.71;61.61
76337;BME280;65157;50.082;18.178;2023-02-28T09:54:30;100673.14;;;3.03;63.01
76337;BME280;65157;50.082;18.178;2023-02-28T09:57:33;100676.20;;;3.46;62.20
76337;BME280;65157;50.082;18.178;2023-02-28T10:00:24;100675.73;;;3.96;61.42
76337;BME280;65157;50.082;18.178;2023-02-28T10:10:42;100665.48;;;5.09;57.41
76337;BME280;65157;50.082;18.178;2023-02-28T10:16:22;100675.70;;;5.49;53.23
76337;BME280;65157;50.082;18.178;2023-02-28T10:18:57;100672.20;;;5.44;54.07
76337;BME280;65157;50.082;18.178;2023-02-28T10:21:49;100670.81;;;5.57;53.24
76337;BME280;65157;50.082;18.178;2023-02-28T10:24:32;100667.47;;;5.58;53.51
76337;BME280;65157;50.082;18.178;2023-02-28T10:27:18;100665.20;;;5.58;54.03
76337;BME280;65157;50.082;18.178;2023-02-28T10:29:47;100658.36;;;5.49;53.70
76337;BME280;65157;50.082;18.178;2023-02-28T10:32:18;100656.97;;;5.51;53.69
76337;BME280;65157;50.082;18.178;2023-02-28T10:34:44;100659.25;;;5.58;53.26
76337;BME280;65157;50.082;18.178;2023-02-28T10:37:22;100659.07;;;5.52;53.38
76337;BME280;65157;50.082;18.178;2023-02-28T10:39:48;100657.32;;;5.54;53.58
76337;BME280;65157;50.082;18.178;2023-02-28T10:42:28;100650.32;;;5.60;52.37
76337;BME280;65157;50.082;18.178;2023-02-28T10:48:00;100649.98;;;5.60;53.00
76337;BME280;65157;50.082;18.178;2023-02-28T10:55:43;100633.67;;;6.08;52.67
76337;BME280;65157;50.082;18.178;2023-02-28T10:58:28;100621.66;;;6.37;53.18
76337;BME280;65157;50.082;18.178;2023-02-28T11:00:54;100618.21;;;6.70;52.59
76337;BME280;65157;50.082;18.178;2023-02-28T11:03:33;100616.20;;;6.88;51.48
76337;BME280;65157;50.082;18.178;2023-02-28T11:06:16;100616.83;;;7.01;50.00
76337;BME280;65157;50.082;18.178;2023-02-28T11:08:48;100604.86;;;7.05;49.50
76337;BME280;65157;50.082;18.178;2023-02-28T11:11:15;100614.77;;;7.20;50.23
76337;BME280;65157;50.082;18.178;2023-02-28T11:13:41;100614.84;;;7.36;50.42
76337;BME280;65157;50.082;18.178;2023-02-28T11:16:11;100608.21;;;7.52;49.76
76337;BME280;65157;50.082;18.178;2023-02-28T11:18:51;100598.48;;;7.61;49.32
76337;BME280;65157;50.082;18.178;2023-02-28T11:21:24;100604.10;;;7.78;49.00
76337;BME280;65157;50.082;18.178;2023-02-28T11:24:42;100601.96;;;7.83;47.88
76337;BME280;65157;50.082;18.178;2023-02-28T11:26:47;100592.13;;;7.82;48.08
76337;BME280;65157;50.082;18.178;2023-02-28T11:29:31;100598.41;;;7.87;46.33
76337;BME280;65157;50.082;18.178;2023-02-28T11:34:30;100582.75;;;7.69;45.34
76337;BME280;65157;50.082;18.178;2023-02-28T11:36:59;100580.85;;;7.66;46.71
76337;BME280;65157;50.082;18.178;2023-02-28T11:39:25;100583.42;;;7.72;47.87
76337;BME280;65157;50.082;18.178;2023-02-28T11:42:14;100575.36;;;7.71;45.56
76337;BME280;65157;50.082;18.178;2023-02-28T11:53:57;100552.96;;;7.79;45.90
76337;BME280;65157;50.082;18.178;2023-02-28T11:56:36;100554.70;;;7.80;45.48
76337;BME280;65157;50.082;18.178;2023-02-28T12:02:30;100551.00;;;7.82;44.95
76337;BME280;65157;50.082;18.178;2023-02-28T12:10:57;100542.43;;;8.10;46.87
76337;BME280;65157;50.082;18.178;2023-02-28T12:22:31;100539.77;;;8.44;46.11
76337;BME280;65157;50.082;18.178;2023-02-28T12:25:31;100537.69;;;8.53;46.39
76337;BME280;65157;50.082;18.178;2023-02-28T12:28:08;100540.76;;;8.61;45.57
76337;BME280;65157;50.082;18.178;2023-02-28T12:31:11;100539.48;;;8.64;45.79
76337;BME280;65157;50.082;18.178;2023-02-28T12:33:40;100536.92;;;8.71;45.54
76337;BME280;65157;50.082;18.178;2023-02-28T12:36:14;100539.48;;;8.77;45.70
76337;BME280;65157;50.082;18.178;2023-02-28T12:38:47;100537.68;;;8.80;45.00
76337;BME280;65157;50.082;18.178;2023-02-28T12:41:39;100537.55;;;8.88;45.70
76337;BME280;65157;50.082;18.178;2023-02-28T12:44:32;100531.73;;;8.90;44.06
76337;BME280;65157;50.082;18.178;2023-02-28T12:47:03;100528.64;;;8.86;45.20
76337;BME280;65157;50.082;18.178;2023-02-28T12:52:01;100527.92;;;8.73;43.75
76337;BME280;65157;50.082;18.178;2023-02-28T13:00:04;100523.38;;;8.72;44.27
76337;BME280;65157;50.082;18.178;2023-02-28T13:08:24;100519.35;;;8.69;45.46
76337;BME280;65157;50.082;18.178;2023-02-28T13:10:53;100522.72;;;8.80;45.96
76337;BME280;65157;50.082;18.178;2023-02-28T13:13:24;100520.34;;;8.87;45.03
76337;BME280;65157;50.082;18.178;2023-02-28T13:16:08;100519.44;;;8.87;45.42
76337;BME280;65157;50.082;18.178;2023-02-28T13:18:44;100515.83;;;8.93;44.58
76337;BME280;65157;50.082;18.178;2023-02-28T13:21:28;100518.45;;;8.83;44.79
76337;BME280;65157;50.082;18.178;2023-02-28T13:39:59;100506.12;;;8.83;44.91
76337;BME280;65157;50.082;18.178;2023-02-28T13:42:58;100500.09;;;8.74;43.86
76337;BME280;65157;50.082;18.178;2023-02-28T13:45:27;100489.22;;;8.60;44.47
76337;BME280;65157;50.082;18.178;2023-02-28T13:48:01;100498.38;;;8.59;45.12
76337;BME280;65157;50.082;18.178;2023-02-28T13:50:36;100499.92;;;8.62;44.66
76337;BME280;65157;50.082;18.178;2023-02-28T13:53:20;100493.58;;;8.63;45.03
76337;BME280;65157;50.082;18.178;2023-02-28T13:56:23;100491.75;;;8.55;44.53
76337;BME280;65157;50.082;18.178;2023-02-28T13:59:16;100492.49;;;8.53;44.58
76337;BME280;65157;50.082;18.178;2023-02-28T14:02:03;100489.12;;;8.55;44.78
76337;BME280;65157;50.082;18.178;2023-02-28T14:07:24;100485.54;;;8.46;44.30
76337;BME280;65157;50.082;18.178;2023-02-28T14:09:58;100480.33;;;8.26;44.03
76337;BME280;65157;50.082;18.178;2023-02-28T14:18:01;100477.25;;;7.91;44.59
76337;BME280;65157;50.082;18.178;2023-02-28T14:20:31;100478.02;;;7.84;46.11
76337;BME280;65157;50.082;18.178;2023-02-28T14:32:23;100474.67;;;8.30;47.01
76337;BME280;65157;50.082;18.178;2023-02-28T14:37:39;100471.00;;;8.27;45.69
76337;BME280;65157;50.082;18.178;2023-02-28T14:40:26;100464.69;;;8.24;45.25
76337;BME280;65157;50.082;18.178;2023-02-28T14:43:01;100462.21;;;8.14;44.79
76337;BME280;65157;50.082;18.178;2023-02-28T14:45:39;100464.50;;;8.13;46.12
76337;BME280;65157;50.082;18.178;2023-02-28T14:48:09;100460.85;;;8.09;45.22
76337;BME280;65157;50.082;18.178;2023-02-28T14:50:36;100461.99;;;8.02;46.05
76337;BME280;65157;50.082;18.178;2023-02-28T14:53:06;100460.52;;;7.93;46.10
76337;BME280;65157;50.082;18.178;2023-02-28T14:55:35;100461.67;;;7.85;46.44
76337;BME280;65157;50.082;18.178;2023-02-28T14:58:04;100461.43;;;7.75;46.59
76337;BME280;65157;50.082;18.178;2023-02-28T15:00:35;100457.20;;;7.61;46.80
76337;BME280;65157;50.082;18.178;2023-02-28T15:03:36;100458.05;;;7.48;46.72
76337;BME280;65157;50.082;18.178;2023-02-28T15:06:16;100458.70;;;7.34;46.90
76337;BME280;65157;50.082;18.178;2023-02-28T15:08:46;100458.33;;;7.19;47.02
76337;BME280;65157;50.082;18.178;2023-02-28T15:11:17;100463.02;;;7.05;47.22